createdAt,value
2022-08-16T00:02:30.775Z,99785.44
2022-08-16T00:04:59.612Z,99784.78
2022-08-16T00:07:28.996Z,99779.47
2022-08-16T00:09:56.559Z,99774.06
2022-08-16T00:12:23.959Z,99769.75
2022-08-16T00:14:50.714Z,99770.81
2022-08-16T00:17:23.206Z,99775.59
2022-08-16T00:19:53.358Z,99779.09
2022-08-16T00:22:20.988Z,99778.91
2022-08-16T00:24:54.357Z,99780.31
2022-08-16T00:27:21.687Z,99778.91
2022-08-16T00:29:48.299Z,99792.22
2022-08-16T00:32:28.151Z,99794.66
2022-08-16T00:35:00.584Z,99796.63
2022-08-16T00:37:56.244Z,99792.16
2022-08-16T00:40:34.399Z,99790.03
2022-08-16T00:43:19.376Z,99787.59
2022-08-16T00:46:34.575Z,99785.38
2022-08-16T00:48:57.283Z,99789.84
2022-08-16T00:51:25.927Z,99793.47
2022-08-16T00:54:00.119Z,99790.31
2022-08-16T00:56:58.279Z,99796.94
2022-08-16T00:59:20.918Z,99794.41
2022-08-16T01:01:51.489Z,99797.88
2022-08-16T01:04:29.410Z,99797.09
2022-08-16T01:07:01.454Z,99794.25
2022-08-16T01:09:33.256Z,99790.31
2022-08-16T01:12:03.560Z,99793.84
2022-08-16T01:14:35.300Z,99796.28
2022-08-16T01:17:03.767Z,99805.22
2022-08-16T01:19:46.173Z,99805.03
2022-08-16T01:22:47.377Z,99802.50
2022-08-16T01:25:21.683Z,99815.19
2022-08-16T01:27:52.375Z,99812.13
2022-08-16T01:30:26.431Z,99803.66
2022-08-16T01:33:01.994Z,99800.38
2022-08-16T01:35:36.146Z,99808.59
2022-08-16T01:38:25.793Z,99812.13
2022-08-16T01:40:59.463Z,99806.16
2022-08-16T01:43:29.606Z,99807.94
2022-08-16T01:46:00.333Z,99806.81
2022-08-16T01:48:48.360Z,99815.19
2022-08-16T01:51:18.648Z,99810.91
2022-08-16T01:53:55.378Z,99808.56
2022-08-16T01:56:24.831Z,99814.66
2022-08-16T01:58:54.620Z,99810.25
2022-08-16T02:01:21.671Z,99818.53
2022-08-16T02:03:50.574Z,99822.06
2022-08-16T02:06:26.082Z,99823.00
2022-08-16T02:09:01.750Z,99831.22
2022-08-16T02:11:47.862Z,99833.25
2022-08-16T02:14:18.318Z,99829.81
2022-08-16T02:16:45.542Z,99831.59
2022-08-16T02:19:16.437Z,99830.63
2022-08-16T02:22:09.268Z,99835.97
2022-08-16T02:24:40.947Z,99834.56
2022-08-16T02:27:08.705Z,99826.81
2022-08-16T02:29:35.428Z,99821.69
2022-08-16T02:32:04.044Z,99832.50
2022-08-16T02:34:50.293Z,99837.16
2022-08-16T02:37:20.928Z,99830.19
2022-08-16T02:39:47.798Z,99826.09
2022-08-16T02:42:21.366Z,99834.19
2022-08-16T02:44:48.973Z,99821.72
2022-08-16T02:47:25.271Z,99831.22
2022-08-16T02:49:59.188Z,99828.50
2022-08-16T02:52:39.595Z,99830.91
2022-08-16T02:55:11.794Z,99820.13
2022-08-16T02:57:54.366Z,99816.38
2022-08-16T03:00:34.504Z,99825.50
2022-08-16T03:03:01.904Z,99821.63
2022-08-16T03:05:31.653Z,99817.50
2022-08-16T03:07:58.590Z,99820.84
2022-08-16T03:10:31.870Z,99826.06
2022-08-16T03:13:00.530Z,99824.09
2022-08-16T03:15:28.331Z,99825.03
2022-08-16T03:17:55.631Z,99826.34
2022-08-16T03:20:31.821Z,99822.88
2022-08-16T03:22:59.339Z,99829.78
2022-08-16T03:25:25.933Z,99824.53
2022-08-16T03:28:08.618Z,99823.22
2022-08-16T03:30:36.416Z,99830.13
2022-08-16T03:33:04.115Z,99830.63
2022-08-16T03:35:34.351Z,99829.81
2022-08-16T03:38:33.133Z,99825.53
2022-08-16T03:40:53.382Z,99826.72
2022-08-16T03:43:21.603Z,99822.09
2022-08-16T03:45:52.853Z,99823.38
2022-08-16T03:48:21.196Z,99826.47
2022-08-16T03:51:07.954Z,99824.31
2022-08-16T03:53:37.889Z,99823.81
2022-08-16T03:56:07.354Z,99824.94
2022-08-16T03:58:35.214Z,99834.16
2022-08-16T04:01:05.204Z,99824.63
2022-08-16T04:03:32.694Z,99833.19
2022-08-16T04:05:59.564Z,99833.78
2022-08-16T04:08:31.172Z,99837.28
2022-08-16T04:10:58.278Z,99840.53
2022-08-16T04:14:01.461Z,99837.59
2022-08-16T04:16:26.537Z,99837.59
2022-08-16T04:19:01.938Z,99840.03
2022-08-16T04:21:31.084Z,99837.28
2022-08-16T04:23:59.186Z,99829.38
2022-08-16T04:26:25.771Z,99838.97
2022-08-16T04:29:16.334Z,99837.31
2022-08-16T04:31:44.790Z,99843.28
2022-08-16T04:34:12.376Z,99831.78
2022-08-16T04:36:39.543Z,99840.53
2022-08-16T04:39:06.163Z,99840.44
2022-08-16T04:41:37.650Z,99839.44
2022-08-16T04:44:33.065Z,99844.53
2022-08-16T04:47:01.078Z,99853.47
2022-08-16T04:49:43.839Z,99847.47
2022-08-16T04:52:33.364Z,99853.22
2022-08-16T04:54:59.444Z,99864.69
2022-08-16T04:57:30.084Z,99869.06
2022-08-16T04:59:56.846Z,99866.72
2022-08-16T05:02:41.686Z,99873.63
2022-08-16T05:05:17.668Z,99876.72
2022-08-16T05:07:57.837Z,99880.47
2022-08-16T05:10:26.380Z,99883.81
2022-08-16T05:12:52.883Z,99875.00
2022-08-16T05:15:19.371Z,99875.50
2022-08-16T05:17:47.247Z,99880.09
2022-08-16T05:20:38.964Z,99883.81
2022-08-16T05:23:09.850Z,99876.81
2022-08-16T05:28:12.446Z,99886.69
2022-08-16T05:30:39.865Z,99880.81
2022-08-16T05:33:16.875Z,99885.63
2022-08-16T05:35:55.127Z,99887.00
2022-08-16T05:38:32.354Z,99888.47
2022-08-16T05:41:05.903Z,99893.78
2022-08-16T05:43:43.741Z,99895.16
2022-08-16T05:46:30.526Z,99899.22
2022-08-16T05:49:05.427Z,99891.50
2022-08-16T05:51:38.451Z,99900.47
2022-08-16T05:54:11.247Z,99911.00
2022-08-16T05:56:39.228Z,99915.97
2022-08-16T05:59:07.146Z,99920.19
2022-08-16T06:01:38.227Z,99921.06
2022-08-16T06:04:12.685Z,99915.06
2022-08-16T06:06:43.410Z,99915.53
2022-08-16T06:09:24.140Z,99915.06
2022-08-16T06:11:50.959Z,99921.84
2022-08-16T06:14:17.933Z,99921.69
2022-08-16T06:16:44.601Z,99924.47
2022-08-16T06:19:17.789Z,99928.31
2022-08-16T06:21:44.475Z,99929.97
2022-08-16T06:24:52.785Z,99925.97
2022-08-16T06:26:58.452Z,99922.56
2022-08-16T06:29:25.480Z,99936.16
2022-08-16T06:31:53.333Z,99930.97
2022-08-16T06:34:56.103Z,99928.25
2022-08-16T06:37:07.409Z,99935.91
2022-08-16T06:39:34.532Z,99934.53
2022-08-16T06:42:18.288Z,99935.69
2022-08-16T06:44:45.577Z,99930.56
2022-08-16T06:47:17.122Z,99937.81
2022-08-16T06:49:52.563Z,99944.63
2022-08-16T06:52:57.251Z,99938.41
2022-08-16T06:55:08.118Z,99953.47
2022-08-16T06:57:39.941Z,99958.34
2022-08-16T07:00:24.755Z,99954.94
2022-08-16T07:02:53.625Z,99958.91
2022-08-16T07:05:39.739Z,99970.16
2022-08-16T07:08:10.556Z,99958.06
2022-08-16T07:10:38.721Z,99965.44
2022-08-16T07:13:11.823Z,99953.56
2022-08-16T07:15:50.438Z,99955.00
2022-08-16T07:18:21.213Z,99952.06
2022-08-16T07:20:51.454Z,99948.91
2022-08-16T07:23:18.329Z,99946.56
2022-08-16T07:25:45.053Z,99946.63
2022-08-16T07:28:20.952Z,99948.38
2022-08-16T07:30:50.925Z,99936.38
2022-08-16T07:33:52.395Z,99951.50
2022-08-16T07:36:09.600Z,99948.97
2022-08-16T07:38:36.741Z,99951.81
2022-08-16T07:41:10.283Z,99951.19
2022-08-16T07:43:40.907Z,99947.94
2022-08-16T07:46:39.192Z,99944.31
2022-08-16T07:48:56.362Z,99953.19
2022-08-16T07:51:31.702Z,99957.09
2022-08-16T07:54:02.432Z,99961.00
2022-08-16T07:56:37.093Z,99952.59
2022-08-16T07:59:05.170Z,99961.50
2022-08-16T08:01:31.898Z,99957.84
2022-08-16T08:03:58.610Z,99961.56
2022-08-16T08:06:30.966Z,99965.56
2022-08-16T08:08:59.404Z,99965.38
2022-08-16T08:11:29.134Z,99968.66
2022-08-16T08:13:57.605Z,99976.91
2022-08-16T08:16:30.940Z,99973.72
2022-08-16T08:19:01.156Z,99975.72
2022-08-16T08:21:59.106Z,99969.13
2022-08-16T08:24:15.714Z,99974.22
2022-08-16T08:26:43.425Z,99976.09
2022-08-16T08:29:12.062Z,99976.06
2022-08-16T08:31:42.196Z,99968.81
2022-08-16T08:34:08.787Z,99976.25
2022-08-16T08:36:39.164Z,99971.47
2022-08-16T08:39:13.260Z,99975.34
2022-08-16T08:41:42.206Z,99972.72
2022-08-16T08:44:29.044Z,99972.88
2022-08-16T08:47:00.580Z,99974.09
2022-08-16T08:49:45.972Z,99970.22
2022-08-16T08:52:34.720Z,99968.69
2022-08-16T08:55:09.209Z,99978.00
2022-08-16T08:57:36.451Z,99971.06
2022-08-16T09:00:07.887Z,99977.03
2022-08-16T09:02:39.569Z,99975.97
2022-08-16T09:05:14.858Z,99979.03
2022-08-16T09:08:01.532Z,99974.31
2022-08-16T09:10:30.673Z,99974.97
2022-08-16T09:12:58.638Z,99970.91
2022-08-16T09:15:26.421Z,99973.88
2022-08-16T09:18:00.092Z,99966.47
2022-08-16T09:20:30.003Z,99969.56
2022-08-16T09:22:57.381Z,99966.25
2022-08-16T09:25:26.303Z,99970.75
2022-08-16T09:28:02.413Z,99971.41
2022-08-16T09:30:43.221Z,99967.16
2022-08-16T09:33:13.641Z,99960.09
2022-08-16T09:35:42.350Z,99960.75
2022-08-16T09:38:09.910Z,99964.53
2022-08-16T09:40:42.791Z,99962.63
2022-08-16T09:43:53.084Z,99961.03
2022-08-16T09:46:33.513Z,99963.63
2022-08-16T09:48:56.585Z,99962.47
2022-08-16T09:51:26.203Z,99966.28
2022-08-16T09:53:57.551Z,99965.34
2022-08-16T09:56:31.525Z,99958.91
2022-08-16T09:59:03.636Z,99971.31
2022-08-16T10:01:33.350Z,99969.06
2022-08-16T10:04:02.047Z,99964.09
2022-08-16T10:06:33.398Z,99964.88
2022-08-16T10:09:05.693Z,99955.81
2022-08-16T10:11:54.370Z,99949.03
2022-08-16T10:14:24.518Z,99958.06
2022-08-16T10:17:02.750Z,99955.00
2022-08-16T10:19:29.706Z,99958.22
2022-08-16T10:21:58.724Z,99956.72
2022-08-16T10:24:28.550Z,99949.22
2022-08-16T10:27:19.839Z,99949.81
2022-08-16T10:30:00.206Z,99952.09
2022-08-16T10:32:30.558Z,99955.31
2022-08-16T10:34:59.602Z,99953.84
2022-08-16T10:37:35.950Z,99955.72
2022-08-16T10:40:28.438Z,99960.59
2022-08-16T10:42:55.990Z,99963.53
2022-08-16T10:45:22.952Z,99965.84
2022-08-16T10:48:02.697Z,99961.22
2022-08-16T10:50:31.505Z,99957.41
2022-08-16T10:52:59.372Z,99967.75
2022-08-16T10:55:45.020Z,99959.47
2022-08-16T10:58:16.920Z,99964.59
2022-08-16T11:00:46.254Z,99962.56
2022-08-16T11:06:00.997Z,99972.63
2022-08-16T11:08:36.153Z,99966.19
2022-08-16T11:11:10.546Z,99965.63
2022-08-16T11:17:02.753Z,99955.06
2022-08-16T11:19:15.471Z,99952.25
2022-08-16T11:24:39.734Z,99960.31
2022-08-16T11:27:21.182Z,99973.91
2022-08-16T11:29:52.254Z,99969.97
2022-08-16T11:32:22.761Z,99967.09
2022-08-16T11:35:16.000Z,99960.88
2022-08-16T11:38:47.285Z,99965.44
2022-08-16T11:40:52.796Z,99965.41
2022-08-16T11:43:23.363Z,99967.09
2022-08-16T11:45:53.664Z,99967.06
2022-08-16T11:48:21.958Z,99977.69
2022-08-16T11:50:48.560Z,99963.66
2022-08-16T11:53:17.043Z,99963.50
2022-08-16T11:55:44.402Z,99957.25
2022-08-16T11:58:11.631Z,99966.34
2022-08-16T12:00:51.088Z,99968.78
2022-08-16T12:03:19.195Z,99962.78
2022-08-16T12:05:46.649Z,99962.44
2022-08-16T12:08:18.573Z,99968.84
2022-08-16T12:10:46.079Z,99971.47
2022-08-16T12:13:14.190Z,99966.66
2022-08-16T12:15:42.588Z,99965.31
2022-08-16T12:18:10.233Z,99972.38
2022-08-16T12:20:40.930Z,99967.06
2022-08-16T12:23:09.311Z,99970.75
2022-08-16T12:25:37.744Z,99977.50
2022-08-16T12:28:06.374Z,99974.34
2022-08-16T12:30:38.644Z,99976.53
2022-08-16T12:33:07.733Z,99974.31
2022-08-16T12:35:36.305Z,99977.06
2022-08-16T12:38:10.359Z,99971.50
2022-08-16T12:40:52.994Z,99972.19
2022-08-16T12:43:23.543Z,99972.88
2022-08-16T12:45:52.621Z,99968.94
2022-08-16T12:48:39.956Z,99970.28
2022-08-16T12:51:24.027Z,99962.91
2022-08-16T12:53:52.949Z,99969.00
2022-08-16T12:56:25.309Z,99965.03
2022-08-16T12:58:53.435Z,99971.16
2022-08-16T13:01:26.818Z,99962.06
2022-08-16T13:04:11.447Z,99964.44
2022-08-16T13:06:40.009Z,99959.53
2022-08-16T13:09:20.508Z,99961.38
2022-08-16T13:11:59.938Z,99960.41
2022-08-16T13:14:31.218Z,99962.47
2022-08-16T13:17:02.018Z,99965.09
2022-08-16T13:19:44.191Z,99949.84
2022-08-16T13:22:19.511Z,99963.50
2022-08-16T13:24:48.053Z,99965.56
2022-08-16T13:27:17.681Z,99951.75
2022-08-16T13:29:45.055Z,99951.28
2022-08-16T13:32:39.624Z,99959.00
2022-08-16T13:35:04.874Z,99956.88
2022-08-16T13:37:32.492Z,99952.06
2022-08-16T13:40:05.297Z,99955.06
2022-08-16T13:42:32.574Z,99968.72
2022-08-16T13:45:08.957Z,99960.06
2022-08-16T13:47:39.984Z,99957.81
2022-08-16T13:50:09.697Z,99952.75
2022-08-16T13:52:39.957Z,99951.22
2022-08-16T13:55:17.817Z,99954.34
2022-08-16T13:58:35.695Z,99952.69
2022-08-16T14:00:31.482Z,99944.13
2022-08-16T14:02:59.156Z,99952.34
2022-08-16T14:05:26.905Z,99940.16
2022-08-16T14:07:53.910Z,99938.66
2022-08-16T14:10:21.195Z,99944.41
2022-08-16T14:12:48.070Z,99936.00
2022-08-16T14:15:16.049Z,99948.25
2022-08-16T14:18:14.922Z,99940.22
2022-08-16T14:20:29.720Z,99945.38
2022-08-16T14:22:56.907Z,99945.03
2022-08-16T14:25:24.538Z,99946.28
2022-08-16T14:27:54.254Z,99945.78
2022-08-16T14:30:22.138Z,99941.38
2022-08-16T14:32:49.858Z,99948.91
2022-08-16T14:35:29.289Z,99951.94
2022-08-16T14:38:04.008Z,99941.03
2022-08-16T14:40:31.992Z,99943.47
2022-08-16T14:42:58.744Z,99945.75
2022-08-16T14:45:33.879Z,99944.34
2022-08-16T14:48:00.749Z,99944.31
2022-08-16T14:50:27.839Z,99947.88
2022-08-16T14:53:09.196Z,99955.69
2022-08-16T14:55:37.788Z,99949.16
2022-08-16T14:58:07.471Z,99943.13
2022-08-16T15:00:47.711Z,99950.69
2022-08-16T15:03:18.163Z,99954.03
2022-08-16T15:05:44.698Z,99954.91
2022-08-16T15:08:11.331Z,99953.09
2022-08-16T15:10:42.854Z,99948.97
2022-08-16T15:13:13.369Z,99948.97
2022-08-16T15:15:43.320Z,99953.63
2022-08-16T15:18:12.211Z,99948.97
2022-08-16T15:20:41.095Z,99944.88
2022-08-16T15:23:08.957Z,99950.03
2022-08-16T15:25:42.992Z,99953.19
2022-08-16T15:28:30.689Z,99955.91
2022-08-16T15:31:00.947Z,99950.69
2022-08-16T15:33:33.427Z,99952.44
2022-08-16T15:36:00.402Z,99950.91
2022-08-16T15:38:54.765Z,99953.25
2022-08-16T15:41:47.728Z,99949.75
2022-08-16T15:44:22.145Z,99952.59
2022-08-16T15:46:54.741Z,99950.63
2022-08-16T15:49:37.157Z,99958.44
2022-08-16T15:52:29.426Z,99957.28
2022-08-16T15:54:57.663Z,99958.22
2022-08-16T15:57:25.735Z,99956.41
2022-08-16T15:59:56.067Z,99959.78
2022-08-16T16:02:31.762Z,99953.06
2022-08-16T16:05:07.307Z,99959.16
2022-08-16T16:07:37.316Z,99956.59
2022-08-16T16:10:13.469Z,99957.09
2022-08-16T16:12:51.607Z,99956.63
2022-08-16T16:15:24.451Z,99964.88
2022-08-16T16:17:52.995Z,99960.16
2022-08-16T16:20:24.420Z,99962.25
2022-08-16T16:22:57.677Z,99960.16
2022-08-16T16:25:26.679Z,99960.41
2022-08-16T16:27:55.795Z,99964.72
2022-08-16T16:30:37.627Z,99965.09
2022-08-16T16:33:21.434Z,99961.03
2022-08-16T16:35:55.281Z,99962.31
2022-08-16T16:38:26.937Z,99968.66
2022-08-16T16:40:54.138Z,99965.13
2022-08-16T16:43:25.466Z,99963.69
2022-08-16T16:45:52.314Z,99964.31
2022-08-16T16:48:18.846Z,99968.84
2022-08-16T16:50:45.704Z,99983.59
2022-08-16T16:53:17.417Z,99982.38
2022-08-16T16:55:47.470Z,99976.38
2022-08-16T16:58:43.469Z,99974.47
2022-08-16T17:01:20.847Z,99975.56
2022-08-16T17:04:13.134Z,99979.63
2022-08-16T17:06:53.429Z,99979.63
2022-08-16T17:09:23.964Z,99974.66
2022-08-16T17:11:55.193Z,99988.50
2022-08-16T17:14:32.668Z,99979.59
2022-08-16T17:17:02.286Z,99984.97
2022-08-16T17:19:31.650Z,99979.97
2022-08-16T17:21:58.950Z,99979.81
2022-08-16T17:24:31.191Z,99984.91
2022-08-16T17:27:06.461Z,99986.72
2022-08-16T17:29:33.310Z,99987.78
2022-08-16T17:32:20.069Z,99993.38
2022-08-16T17:34:50.509Z,99990.13
2022-08-16T17:37:17.771Z,99989.59
2022-08-16T17:39:59.265Z,99996.00
2022-08-16T17:42:27.450Z,99998.16
2022-08-16T17:44:54.601Z,99994.00
2022-08-16T17:47:21.599Z,99992.81
2022-08-16T17:49:48.073Z,100000.75
2022-08-16T17:52:14.745Z,100003.47
2022-08-16T17:54:41.365Z,100001.59
2022-08-16T17:57:07.870Z,100002.81
2022-08-16T17:59:38.359Z,100006.13
2022-08-16T18:02:42.570Z,100014.16
2022-08-16T18:04:55.532Z,100017.91
2022-08-16T18:07:22.212Z,100021.53
2022-08-16T18:09:48.794Z,100016.28
2022-08-16T18:12:44.848Z,100023.75
2022-08-16T18:15:09.766Z,100028.50
2022-08-16T18:17:36.218Z,100035.53
2022-08-16T18:20:08.008Z,100028.00
2022-08-16T18:22:34.523Z,100031.94
2022-08-16T18:25:01.045Z,100031.94
2022-08-16T18:27:29.571Z,100036.56
2022-08-16T18:29:56.126Z,100034.84
2022-08-16T18:32:24.594Z,100041.25
2022-08-16T18:34:52.739Z,100045.44
2022-08-16T18:37:21.381Z,100046.19
2022-08-16T18:39:48.001Z,100044.78
2022-08-16T18:42:15.270Z,100051.47
2022-08-16T18:44:43.644Z,100048.94
2022-08-16T18:47:10.305Z,100047.03
2022-08-16T18:49:37.143Z,100059.69
2022-08-16T18:52:04.160Z,100060.50
2022-08-16T18:54:32.507Z,100055.78
2022-08-16T18:56:59.319Z,100063.44
2022-08-16T18:59:29.265Z,100075.78
2022-08-16T19:02:00.018Z,100069.13
2022-08-16T19:04:56.290Z,100075.50
2022-08-16T19:07:19.439Z,100082.81
2022-08-16T19:09:46.106Z,100085.31
2022-08-16T19:12:15.951Z,100089.72
2022-08-16T19:14:44.144Z,100085.13
2022-08-16T19:17:11.326Z,100091.72
2022-08-16T19:19:37.941Z,100100.84
2022-08-16T19:22:05.898Z,100097.81
2022-08-16T19:24:32.621Z,100093.75
2022-08-16T19:26:59.178Z,100098.00
2022-08-16T19:29:28.404Z,100099.03
2022-08-16T19:31:54.939Z,100096.69
2022-08-16T19:34:21.389Z,100097.94
2022-08-16T19:36:48.058Z,100101.50
2022-08-16T19:39:16.348Z,100113.72
2022-08-16T19:41:46.213Z,100123.03
2022-08-16T19:44:19.855Z,100123.41
2022-08-16T19:46:48.586Z,100124.41
2022-08-16T19:49:16.439Z,100124.06
2022-08-16T19:51:44.611Z,100125.38
2022-08-16T19:54:11.072Z,100126.84
2022-08-16T19:56:37.886Z,100127.44
2022-08-16T19:59:22.028Z,100133.97
2022-08-16T20:01:51.882Z,100125.59
2022-08-16T20:04:19.789Z,100131.69
2022-08-16T20:06:46.993Z,100134.22
2022-08-16T20:09:15.062Z,100129.59
2022-08-16T20:11:44.215Z,100132.75
2022-08-16T20:14:11.724Z,100135.66
2022-08-16T20:16:46.729Z,100144.66
2022-08-16T20:19:13.259Z,100146.94
2022-08-16T20:21:39.722Z,100151.28
2022-08-16T20:24:32.932Z,100154.88
2022-08-16T20:26:53.558Z,100150.09
2022-08-16T20:29:20.058Z,100157.38
2022-08-16T20:31:46.605Z,100155.50
2022-08-16T20:34:15.636Z,100156.59
2022-08-16T20:36:43.241Z,100158.31
2022-08-16T20:39:13.309Z,100165.19
2022-08-16T20:41:43.177Z,100163.13
2022-08-16T20:44:11.090Z,100170.13
2022-08-16T20:46:39.783Z,100170.50
2022-08-16T20:49:09.249Z,100169.63
2022-08-16T20:51:49.465Z,100167.91
2022-08-16T20:54:18.116Z,100168.31
2022-08-16T20:56:44.620Z,100164.72
2022-08-16T20:59:11.093Z,100173.63
2022-08-16T21:01:47.059Z,100184.69
2022-08-16T21:04:19.069Z,100185.72
2022-08-16T21:06:53.648Z,100186.13
2022-08-16T21:09:26.664Z,100183.47
2022-08-16T21:11:56.130Z,100189.09
2022-08-16T21:14:23.331Z,100193.00
2022-08-16T21:16:50.023Z,100190.28
2022-08-16T21:19:16.866Z,100187.53
2022-08-16T21:21:43.373Z,100188.88
2022-08-16T21:24:09.930Z,100194.91
2022-08-16T21:26:38.900Z,100195.97
2022-08-16T21:29:06.640Z,100190.84
2022-08-16T21:31:39.528Z,100203.25
2022-08-16T21:34:06.419Z,100196.97
2022-08-16T21:36:35.055Z,100202.31
2022-08-16T21:39:06.983Z,100196.88
2022-08-16T21:41:35.463Z,100197.69
2022-08-16T21:44:02.069Z,100197.88
2022-08-16T21:46:28.645Z,100196.03
2022-08-16T21:48:55.115Z,100202.22
2022-08-16T21:51:22.242Z,100198.50
2022-08-16T21:53:48.727Z,100192.19
2022-08-16T21:56:17.277Z,100196.16
2022-08-16T21:58:45.555Z,100196.34
2022-08-16T22:01:12.767Z,100190.47
2022-08-16T22:03:39.256Z,100200.88
2022-08-16T22:06:11.597Z,100205.59
2022-08-16T22:08:39.512Z,100200.50
2022-08-16T22:11:17.458Z,100213.44
2022-08-16T22:13:49.286Z,100202.72
2022-08-16T22:16:26.399Z,100207.88
2022-08-16T22:18:52.947Z,100203.75
2022-08-16T22:21:19.738Z,100211.09
2022-08-16T22:23:46.295Z,100212.69
2022-08-16T22:26:30.291Z,100205.28
2022-08-16T22:29:00.372Z,100224.56
2022-08-16T22:31:27.351Z,100212.25
2022-08-16T22:33:53.939Z,100212.41
2022-08-16T22:36:20.398Z,100213.81
2022-08-16T22:38:56.069Z,100215.00
2022-08-16T22:41:24.120Z,100213.44
2022-08-16T22:43:50.632Z,100215.59
2022-08-16T22:46:19.883Z,100224.50
2022-08-16T22:48:49.927Z,100226.84
2022-08-16T22:51:16.966Z,100229.56
2022-08-16T22:53:43.412Z,100226.91
2022-08-16T22:56:09.950Z,100226.16
2022-08-16T22:58:37.341Z,100223.53
2022-08-16T23:01:08.475Z,100220.44
2022-08-16T23:03:35.179Z,100218.84
2022-08-16T23:06:01.704Z,100219.13
2022-08-16T23:08:39.094Z,100226.53
2022-08-16T23:11:08.971Z,100217.63
2022-08-16T23:13:35.435Z,100211.94
2022-08-16T23:16:11.443Z,100213.44
2022-08-16T23:18:39.466Z,100210.34
2022-08-16T23:21:09.814Z,100223.34
2022-08-16T23:23:37.567Z,100216.34
2022-08-16T23:26:45.524Z,100216.28
2022-08-16T23:28:51.741Z,100209.63
2022-08-16T23:31:18.662Z,100216.28
2022-08-16T23:33:45.879Z,100214.47
2022-08-16T23:36:13.259Z,100209.31
2022-08-16T23:38:40.127Z,100206.91
2022-08-16T23:41:11.842Z,100212.16
2022-08-16T23:43:44.312Z,100211.03
2022-08-16T23:46:16.925Z,100211.38
2022-08-16T23:50:01.794Z,100212.41
2022-08-16T23:51:31.370Z,100214.47
2022-08-16T23:53:57.913Z,100219.03
2022-08-16T23:56:25.596Z,100204.28
2022-08-16T23:58:54.549Z,100204.13
